Time;durP1;ratioP1;P1;durP2;ratioP2;P2;SDS_P1;SDS_P2;PMS_P1;PMS_P2;Temp;Humidity;BMP_temperature;BMP_pressure;BME280_temperature;BME280_humidity;BME280_pressure;Samples;Min_cycle;Max_cycle;Signal;HPM_P1;HPM_P2
2023/03/05 00:00:15;;;;;;;48.43;16.80;;;6.10;90.10;;;;;;5072560;28;20850;-60
2023/03/05 00:02:41;;;;;;;48.20;18.10;;;6.00;90.10;;;;;;5062988;28;20489;-60
2023/03/05 00:05:09;;;;;;;51.43;20.07;;;5.90;90.60;;;;;;5065891;27;20469;-60
2023/03/05 00:07:36;;;;;;;43.00;15.50;;;6.80;91.00;;;;;;5073168;28;20497;-60
2023/03/05 00:10:04;;;;;;;44.27;17.70;;;5.90;90.80;;;;;;5076726;28;20482;-59
2023/03/05 00:12:31;;;;;;;44.00;18.30;;;5.90;90.60;;;;;;5073328;28;20474;-59
2023/03/05 00:14:59;;;;;;;60.77;23.03;;;5.90;90.90;;;;;;5067917;28;20860;-60
2023/03/05 00:17:26;;;;;;;36.83;16.93;;;5.90;90.70;;;;;;5059366;28;20531;-60
2023/03/05 00:19:53;;;;;;;37.53;17.33;;;5.80;90.80;;;;;;5079920;28;20512;-60
2023/03/05 00:22:19;;;;;;;40.63;17.30;;;5.80;90.80;;;;;;5066265;28;20974;-60
2023/03/05 00:24:46;;;;;;;53.00;20.40;;;5.80;90.90;;;;;;5067148;28;20885;-60
2023/03/05 00:27:13;;;;;;;34.57;16.37;;;5.80;91.00;;;;;;5068098;28;20882;-60
2023/03/05 00:29:40;;;;;;;38.60;15.00;;;5.90;90.90;;;;;;5066440;28;20484;-60
2023/03/05 00:32:08;;;;;;;37.33;16.87;;;5.90;90.70;;;;;;5066404;28;20560;-59
2023/03/05 00:34:36;;;;;;;41.37;18.23;;;5.90;90.60;;;;;;5069791;28;20639;-60
2023/03/05 00:37:03;;;;;;;40.13;18.03;;;6.00;90.60;;;;;;5063689;28;20810;-60
2023/03/05 00:39:29;;;;;;;31.60;15.30;;;6.10;90.50;;;;;;5073245;28;21196;-60
2023/03/05 00:41:57;;;;;;;54.50;24.53;;;6.20;90.60;;;;;;5053978;28;21243;-60
2023/03/05 00:44:24;;;;;;;38.37;18.77;;;6.30;90.60;;;;;;5068777;28;21002;-60
2023/03/05 00:46:51;;;;;;;43.97;19.90;;;6.30;90.50;;;;;;5076818;28;20567;-60
2023/03/05 00:49:19;;;;;;;32.47;15.90;;;6.40;90.60;;;;;;5065193;28;20490;-60
2023/03/05 00:51:45;;;;;;;29.63;15.80;;;6.30;90.50;;;;;;5061409;28;20527;-61
2023/03/05 00:54:12;;;;;;;32.70;14.77;;;6.20;90.50;;;;;;5067774;28;20550;-60
2023/03/05 00:56:39;;;;;;;34.70;17.03;;;6.20;90.70;;;;;;5067635;28;20486;-60
2023/03/05 00:59:06;;;;;;;41.03;17.20;;;6.30;90.60;;;;;;5044797;28;20478;-60
2023/03/05 01:01:32;;;;;;;30.20;13.43;;;6.30;90.70;;;;;;5074991;28;21056;-60
2023/03/05 01:04:00;;;;;;;40.90;19.67;;;5.60;90.50;;;;;;5058455;28;20493;-59
2023/03/05 01:06:28;;;;;;;41.50;17.47;;;6.00;90.70;;;;;;5086260;28;20479;-60
2023/03/05 01:08:55;;;;;;;36.33;17.23;;;6.10;90.80;;;;;;5068281;28;20482;-60
2023/03/05 01:11:22;;;;;;;31.00;14.93;;;6.10;90.60;;;;;;5067331;28;21075;-60
2023/03/05 01:13:49;;;;;;;39.20;16.93;;;6.10;90.70;;;;;;5068369;28;20482;-59
2023/03/05 01:16:15;;;;;;;30.20;14.77;;;6.10;90.70;;;;;;5066891;28;20547;-60
2023/03/05 01:18:42;;;;;;;31.23;15.60;;;6.10;90.80;;;;;;5069335;28;21459;-59
2023/03/05 01:21:09;;;;;;;29.27;15.23;;;6.10;91.10;;;;;;5061320;28;20477;-60
2023/03/05 01:23:37;;;;;;;38.53;17.97;;;6.10;91.50;;;;;;5075930;28;20556;-60
2023/03/05 01:26:04;;;;;;;52.40;19.97;;;6.10;91.60;;;;;;5067717;28;20482;-60
2023/03/05 01:28:31;;;;;;;30.60;14.63;;;6.20;91.50;;;;;;5051384;28;20477;-60
2023/03/05 01:30:58;;;;;;;47.60;21.10;;;6.20;91.30;;;;;;5075781;28;20535;-60
2023/03/05 01:33:24;;;;;;;34.60;16.10;;;6.30;91.20;;;;;;5064075;28;20639;-60
2023/03/05 01:35:51;;;;;;;43.23;18.97;;;6.30;91.10;;;;;;5068797;28;20536;-60
2023/03/05 01:38:18;;;;;;;31.27;16.23;;;6.20;91.10;;;;;;5074470;27;20481;-60
2023/03/05 01:40:46;;;;;;;31.70;15.97;;;6.10;91.30;;;;;;5067561;28;20816;-60
2023/03/05 01:43:23;;;;;;;32.30;14.50;;;6.10;91.20;;;;;;5070262;28;20490;-60
2023/03/05 01:46:26;;;;;;;50.00;21.27;;;5.90;91.10;;;;;;5067858;28;20895;-59
2023/03/05 01:48:58;;;;;;;46.60;19.90;;;5.80;91.30;;;;;;5062462;28;21789;-60
2023/03/05 01:51:28;;;;;;;39.27;16.63;;;5.70;91.50;;;;;;5064990;28;20485;-59
2023/03/05 01:53:57;;;;;;;59.20;25.20;;;5.60;91.60;;;;;;5074788;28;20487;-60
2023/03/05 01:56:27;;;;;;;43.60;20.10;;;5.60;91.60;;;;;;5066989;28;20581;-59
2023/03/05 01:59:02;;;;;;;57.63;24.57;;;5.60;91.50;;;;;;5067208;28;21080;-59
2023/03/05 02:01:30;;;;;;;41.00;18.43;;;5.50;91.60;;;;;;5059101;28;20469;-60
2023/03/05 02:03:57;;;;;;;55.63;19.90;;;5.50;91.80;;;;;;5077340;28;20524;-60
2023/03/05 02:06:24;;;;;;;41.10;19.90;;;5.40;91.90;;;;;;5059825;28;20517;-59
2023/03/05 02:08:50;;;;;;;59.53;20.97;;;5.40;92.00;;;;;;5076809;28;20852;-60
2023/03/05 02:11:17;;;;;;;38.27;17.57;;;5.30;92.00;;;;;;5070161;28;21258;-60
2023/03/05 02:13:45;;;;;;;54.63;20.90;;;5.30;92.00;;;;;;5049996;28;20482;-59
2023/03/05 02:16:12;;;;;;;43.40;19.43;;;5.30;92.10;;;;;;5077241;28;20539;-60
2023/03/05 02:18:39;;;;;;;50.50;19.03;;;5.30;92.00;;;;;;5064859;28;20509;-60
2023/03/05 02:21:07;;;;;;;54.67;20.57;;;5.30;92.10;;;;;;5065410;28;20568;-60
2023/03/05 02:23:36;;;;;;;66.43;22.27;;;5.40;91.90;;;;;;5063140;28;21041;-59
2023/03/05 02:26:04;;;;;;;63.47;22.10;;;5.40;91.80;;;;;;5069709;28;20470;-60
2023/03/05 02:28:36;;;;;;;49.93;19.97;;;5.60;91.70;;;;;;5053098;28;20982;-60
2023/03/05 02:31:09;;;;;;;77.13;23.63;;;5.70;91.40;;;;;;5082864;28;20575;-60
2023/03/05 02:33:36;;;;;;;64.73;21.50;;;5.80;91.40;;;;;;5062848;28;21158;-60
2023/03/05 02:36:03;;;;;;;70.07;23.37;;;5.80;91.50;;;;;;5061011;28;21232;-61
2023/03/05 02:38:31;;;;;;;53.63;20.00;;;5.70;91.70;;;;;;5080152;28;20482;-60
2023/03/05 02:41:29;;;;;;;59.27;22.67;;;5.60;91.60;;;;;;5068952;28;20543;-60
2023/03/05 02:43:56;;;;;;;58.93;19.90;;;5.50;91.70;;;;;;5056062;28;20478;-59
2023/03/05 02:46:23;;;;;;;41.50;19.57;;;5.60;91.80;;;;;;5068878;28;20528;-60
2023/03/05 02:48:49;;;;;;;58.30;23.60;;;5.50;91.70;;;;;;5062801;28;20881;-60
2023/03/05 02:51:17;;;;;;;34.03;14.10;;;5.60;91.80;;;;;;5066773;28;20485;-59
2023/03/05 02:53:45;;;;;;;31.30;16.37;;;5.70;91.70;;;;;;5074856;28;20770;-59
2023/03/05 02:56:11;;;;;;;27.77;15.00;;;5.80;91.60;;;;;;5064437;28;20478;-60
2023/03/05 02:58:38;;;;;;;31.30;16.67;;;5.70;91.60;;;;;;5070842;28;20555;-60
2023/03/05 03:01:05;;;;;;;30.07;16.50;;;5.80;91.70;;;;;;5065191;28;20474;-60
2023/03/05 03:03:32;;;;;;;35.73;18.17;;;5.90;91.70;;;;;;5072433;28;20892;-60
2023/03/05 03:05:58;;;;;;;44.17;18.53;;;5.90;91.80;;;;;;5065451;28;21082;-60
2023/03/05 03:08:25;;;;;;;38.63;19.57;;;5.90;91.50;;;;;;5075476;28;20478;-60
2023/03/05 03:10:55;;;;;;;48.50;20.10;;;5.80;91.50;;;;;;5059931;28;20762;-60
2023/03/05 03:13:21;;;;;;;38.47;17.13;;;5.70;91.60;;;;;;5078428;28;20515;-60
2023/03/05 03:15:48;;;;;;;42.63;18.33;;;5.70;91.80;;;;;;5074446;28;20475;-60
2023/03/05 03:18:15;;;;;;;41.97;17.93;;;5.80;91.90;;;;;;5065845;28;20593;-60
2023/03/05 03:20:42;;;;;;;40.30;17.17;;;6.00;91.70;;;;;;5079069;28;20483;-60
2023/03/05 03:23:09;;;;;;;28.80;15.40;;;6.00;91.60;;;;;;5073292;28;20493;-60
2023/03/05 03:25:35;;;;;;;30.23;16.53;;;6.00;91.70;;;;;;5066879;28;20475;-60
2023/03/05 03:28:03;;;;;;;38.47;17.67;;;5.90;91.80;;;;;;5070355;28;20474;-60
2023/03/05 03:30:30;;;;;;;46.03;19.23;;;5.90;91.90;;;;;;5061896;28;20477;-60
2023/03/05 03:32:57;;;;;;;51.63;21.80;;;5.90;91.80;;;;;;5074406;28;20481;-59
2023/03/05 03:35:24;;;;;;;37.50;16.93;;;5.90;91.60;;;;;;5061911;28;20473;-59
2023/03/05 03:37:51;;;;;;;37.13;19.30;;;5.90;91.60;;;;;;5069914;28;20471;-60
2023/03/05 03:40:18;;;;;;;34.70;17.07;;;5.80;91.90;;;;;;5069613;28;20757;-60
2023/03/05 03:42:44;;;;;;;41.00;16.50;;;5.90;91.80;;;;;;5059069;28;20562;-59
2023/03/05 03:45:13;;;;;;;24.57;12.97;;;5.90;91.80;;;;;;5079491;28;20531;-60
2023/03/05 03:47:40;;;;;;;35.80;17.77;;;5.90;91.90;;;;;;5059305;28;20899;-60
2023/03/05 03:50:07;;;;;;;36.27;15.90;;;5.80;92.00;;;;;;5061177;28;20497;-60
2023/03/05 03:52:34;;;;;;;38.30;17.53;;;5.70;92.20;;;;;;5076313;28;20485;-60
2023/03/05 03:55:01;;;;;;;46.30;20.27;;;5.60;92.30;;;;;;5073527;28;20870;-60
2023/03/05 03:57:28;;;;;;;41.93;16.00;;;5.50;92.50;;;;;;5070652;28;20478;-59
2023/03/05 03:59:55;;;;;;;49.20;23.27;;;5.40;92.40;;;;;;5070272;28;20535;-60
2023/03/05 04:02:23;;;;;;;30.73;15.80;;;5.40;92.70;;;;;;5044851;28;20887;-59
2023/03/05 04:04:50;;;;;;;35.60;17.47;;;5.50;92.60;;;;;;5064188;28;20478;-60
2023/03/05 04:07:17;;;;;;;29.73;14.63;;;5.50;92.60;;;;;;5066990;28;20892;-60
2023/03/05 04:09:44;;;;;;;32.27;15.80;;;5.50;92.50;;;;;;5064354;28;20508;-59
2023/03/05 04:12:16;;;;;;;34.70;13.63;;;5.50;92.50;;;;;;5063414;28;20811;-60
2023/03/05 04:14:43;;;;;;;42.33;18.63;;;5.50;92.50;;;;;;5067786;28;20469;-59
2023/03/05 04:17:11;;;;;;;38.40;16.47;;;5.40;92.50;;;;;;5069955;28;20512;-59
2023/03/05 04:19:39;;;;;;;41.20;16.90;;;5.40;92.40;;;;;;5073984;28;20487;-60
2023/03/05 04:22:06;;;;;;;52.03;20.50;;;5.40;92.50;;;;;;5059666;28;20483;-60
2023/03/05 04:24:33;;;;;;;38.60;16.80;;;5.40;92.60;;;;;;5061336;28;20542;-60
2023/03/05 04:27:00;;;;;;;58.83;20.50;;;5.50;92.70;;;;;;5078309;27;21364;-59
2023/03/05 04:29:27;;;;;;;46.17;18.83;;;5.50;92.50;;;;;;5066607;28;20477;-60
2023/03/05 04:31:54;;;;;;;44.60;18.80;;;5.60;92.20;;;;;;5076973;28;20470;-60
2023/03/05 04:34:21;;;;;;;42.53;17.23;;;5.70;92.20;;;;;;5065005;28;20539;-59
2023/03/05 04:36:49;;;;;;;39.07;17.30;;;5.60;92.10;;;;;;5068123;28;20479;-59
2023/03/05 04:39:16;;;;;;;37.60;16.80;;;5.60;92.30;;;;;;5070843;28;20487;-59
2023/03/05 04:41:43;;;;;;;41.03;16.57;;;5.60;92.20;;;;;;5065702;28;20945;-60
2023/03/05 04:44:09;;;;;;;39.33;15.77;;;5.60;92.30;;;;;;5080606;28;20469;-60
2023/03/05 04:46:36;;;;;;;40.27;15.20;;;5.40;92.50;;;;;;5071654;28;20918;-60
2023/03/05 04:49:02;;;;;;;54.57;19.30;;;5.40;92.50;;;;;;5080277;28;20489;-60
2023/03/05 04:51:29;;;;;;;32.87;15.30;;;5.40;92.70;;;;;;5078120;28;20465;-59
2023/03/05 04:53:57;;;;;;;52.00;20.27;;;5.30;92.80;;;;;;5057648;28;20544;-60
2023/03/05 04:56:24;;;;;;;43.93;15.27;;;5.20;92.80;;;;;;5058670;28;20594;-60
2023/03/05 04:58:51;;;;;;;57.37;20.77;;;5.20;93.00;;;;;;5085301;28;20478;-60
2023/03/05 05:01:18;;;;;;;26.60;14.07;;;5.20;93.00;;;;;;5061052;28;20493;-60
2023/03/05 05:03:44;;;;;;;46.83;17.17;;;5.20;93.00;;;;;;5080352;28;20543;-59
2023/03/05 05:06:11;;;;;;;33.90;14.57;;;5.30;93.00;;;;;;5069847;28;20490;-60
2023/03/05 05:08:38;;;;;;;44.10;16.33;;;5.40;92.80;;;;;;5073566;28;20478;-59
2023/03/05 05:11:08;;;;;;;60.57;19.33;;;5.40;92.60;;;;;;5083067;28;20594;-60
2023/03/05 05:13:35;;;;;;;50.40;19.10;;;5.40;92.70;;;;;;5071948;28;20986;-60
2023/03/05 05:16:02;;;;;;;73.47;20.17;;;5.40;92.90;;;;;;5073664;28;20478;-60
2023/03/05 05:18:28;;;;;;;48.00;18.90;;;5.40;92.70;;;;;;5065230;28;20527;-59
2023/03/05 05:20:55;;;;;;;60.07;21.10;;;5.50;92.60;;;;;;5075074;28;20836;-59
2023/03/05 05:23:22;;;;;;;47.23;17.90;;;5.40;92.70;;;;;;5072487;28;20937;-60
2023/03/05 05:25:56;;;;;;;45.43;16.67;;;5.40;92.70;;;;;;5075029;28;20478;-59
2023/03/05 05:28:24;;;;;;;53.53;17.80;;;5.40;92.80;;;;;;5072605;28;20477;-60
2023/03/05 05:30:51;;;;;;;38.37;16.83;;;5.30;92.90;;;;;;5069880;28;20972;-60
2023/03/05 05:33:18;;;;;;;35.97;16.10;;;5.20;93.00;;;;;;5058483;28;20487;-59
2023/03/05 05:35:44;;;;;;;38.70;17.43;;;5.10;93.00;;;;;;5043413;28;21177;-60
2023/03/05 05:38:11;;;;;;;41.47;15.40;;;7.60;94.20;;;;;;5078688;28;20478;-60
2023/03/05 05:40:38;;;;;;;36.40;18.40;;;5.20;93.10;;;;;;5080262;28;20913;-59
2023/03/05 05:43:05;;;;;;;33.83;15.93;;;5.30;93.10;;;;;;5074228;28;20491;-60
2023/03/05 05:45:33;;;;;;;35.73;15.60;;;5.30;93.00;;;;;;5060512;28;20486;-60
2023/03/05 05:48:00;;;;;;;47.10;19.83;;;5.40;92.90;;;;;;5072095;28;20477;-60
2023/03/05 05:50:27;;;;;;;39.77;17.80;;;5.30;92.80;;;;;;5074609;28;20478;-60
2023/03/05 05:52:53;;;;;;;59.97;23.13;;;5.40;92.70;;;;;;5049003;28;20510;-59
2023/03/05 05:55:20;;;;;;;43.70;18.57;;;5.40;92.70;;;;;;5084797;28;20552;-60
2023/03/05 05:57:47;;;;;;;40.07;18.27;;;5.40;92.80;;;;;;5053326;28;20547;-60
2023/03/05 06:00:15;;;;;;;34.50;15.67;;;5.40;92.60;;;;;;5081277;28;20543;-59
2023/03/05 06:02:43;;;;;;;40.03;18.13;;;5.40;92.50;;;;;;5057423;28;21067;-59
2023/03/05 06:05:13;;;;;;;35.30;17.63;;;5.50;92.50;;;;;;5063480;28;20924;-59
2023/03/05 06:07:40;;;;;;;38.47;16.33;;;5.50;92.40;;;;;;5054312;28;20480;-60
2023/03/05 06:10:09;;;;;;;41.50;17.23;;;5.50;92.50;;;;;;5063647;28;20488;-60
2023/03/05 06:12:35;;;;;;;37.10;18.00;;;5.40;92.50;;;;;;5068715;28;20530;-60
2023/03/05 06:15:02;;;;;;;44.63;19.20;;;5.60;92.50;;;;;;5064771;28;20858;-60
2023/03/05 06:17:29;;;;;;;42.53;18.57;;;5.60;92.40;;;;;;5050098;28;20487;-59
2023/03/05 06:19:57;;;;;;;50.97;23.40;;;5.70;92.50;;;;;;5066022;28;20563;-60
2023/03/05 06:22:23;;;;;;;33.80;15.10;;;5.70;92.40;;;;;;5081716;28;20475;-60
2023/03/05 06:24:50;;;;;;;39.87;18.03;;;5.70;92.30;;;;;;5065618;28;20826;-59
2023/03/05 06:27:17;;;;;;;39.47;16.97;;;5.70;92.40;;;;;;5054323;28;20551;-59
2023/03/05 06:29:43;;;;;;;33.73;15.57;;;5.70;92.30;;;;;;5076932;28;20498;-59
2023/03/05 06:32:10;;;;;;;32.07;16.17;;;5.70;92.30;;;;;;5074778;28;20473;-60
2023/03/05 06:34:37;;;;;;;32.00;16.47;;;5.70;92.30;;;;;;5062993;28;20490;-60
2023/03/05 06:37:05;;;;;;;37.70;17.07;;;5.80;92.30;;;;;;5072629;28;21035;-59
2023/03/05 06:39:32;;;;;;;35.60;17.10;;;5.80;92.30;;;;;;5076633;28;20481;-60
2023/03/05 06:42:00;;;;;;;42.97;21.00;;;5.80;92.20;;;;;;5065851;28;20489;-59
2023/03/05 06:44:27;;;;;;;38.90;17.30;;;5.80;92.20;;;;;;5058218;28;20809;-59
2023/03/05 06:46:54;;;;;;;47.50;22.30;;;5.90;92.20;;;;;;5074890;28;20675;-60
2023/03/05 06:49:21;;;;;;;39.50;18.23;;;5.90;92.30;;;;;;5083289;28;20535;-59
2023/03/05 06:51:47;;;;;;;32.30;17.37;;;5.80;92.30;;;;;;5067719;28;20831;-59
2023/03/05 06:54:17;;;;;;;35.50;15.60;;;5.90;92.50;;;;;;5087027;28;21009;-59
2023/03/05 06:56:46;;;;;;;33.37;15.60;;;5.90;92.60;;;;;;5068015;28;20470;-59
2023/03/05 06:59:15;;;;;;;29.17;14.57;;;5.80;92.80;;;;;;5083042;28;20481;-59
2023/03/05 07:01:42;;;;;;;34.73;16.77;;;5.80;92.80;;;;;;5066357;28;20797;-59
2023/03/05 07:04:09;;;;;;;32.17;15.13;;;5.90;92.80;;;;;;5036593;28;20582;-59
2023/03/05 07:06:38;;;;;;;31.30;15.80;;;6.00;92.90;;;;;;5055136;28;20540;-60
2023/03/05 07:09:06;;;;;;;41.50;19.10;;;6.00;92.80;;;;;;5068707;28;20495;-59
2023/03/05 07:11:34;;;;;;;43.30;18.83;;;6.00;92.80;;;;;;5062138;28;20482;-60
2023/03/05 07:14:01;;;;;;;58.30;24.00;;;6.10;92.90;;;;;;5067581;28;20485;-60
2023/03/05 07:16:30;;;;;;;39.10;18.00;;;6.20;93.00;;;;;;5066157;28;20747;-59
2023/03/05 07:18:58;;;;;;;35.27;16.70;;;6.30;93.00;;;;;;5062316;28;20470;-59
2023/03/05 07:21:27;;;;;;;40.17;20.20;;;6.30;93.00;;;;;;5058837;28;20486;-59
2023/03/05 07:23:55;;;;;;;49.80;23.63;;;6.40;93.20;;;;;;5071026;28;22210;-59
2023/03/05 07:26:22;;;;;;;30.50;14.30;;;6.50;93.10;;;;;;5077177;28;20477;-60
2023/03/05 07:28:50;;;;;;;31.33;15.77;;;6.60;92.90;;;;;;5074499;28;20481;-59
2023/03/05 07:31:19;;;;;;;30.77;14.67;;;6.60;92.40;;;;;;5075981;28;20486;-60
2023/03/05 07:33:46;;;;;;;36.10;14.80;;;6.70;92.40;;;;;;5070636;28;20482;-60
2023/03/05 07:36:13;;;;;;;27.07;13.67;;;6.70;92.30;;;;;;5061184;28;20478;-59
2023/03/05 07:38:40;;;;;;;36.70;17.30;;;6.80;92.30;;;;;;5067461;27;20861;-60
2023/03/05 07:41:09;;;;;;;40.17;14.33;;;6.80;92.00;;;;;;5068675;28;20486;-60
2023/03/05 07:43:36;;;;;;;36.80;14.87;;;6.80;91.60;;;;;;5082422;28;21200;-60
2023/03/05 07:46:06;;;;;;;32.83;16.73;;;6.80;91.70;;;;;;5062437;28;20492;-60
2023/03/05 07:48:33;;;;;;;43.47;14.83;;;6.80;91.70;;;;;;5074255;28;20480;-60
2023/03/05 07:51:03;;;;;;;41.40;17.20;;;6.90;91.70;;;;;;5087789;28;20572;-60
2023/03/05 07:53:30;;;;;;;32.97;15.37;;;6.90;91.80;;;;;;5073493;28;20799;-60
2023/03/05 07:55:56;;;;;;;38.57;18.17;;;6.90;91.40;;;;;;5072355;28;20539;-58
2023/03/05 07:58:23;;;;;;;27.33;13.60;;;6.90;91.40;;;;;;5080878;28;20473;-59
2023/03/05 08:00:50;;;;;;;30.73;13.57;;;7.00;91.40;;;;;;5072932;28;20481;-60
2023/03/05 08:03:18;;;;;;;34.13;15.10;;;7.00;91.40;;;;;;5088582;28;20481;-60
2023/03/05 08:05:45;;;;;;;27.53;13.73;;;7.10;91.00;;;;;;5080687;28;20534;-61
2023/03/05 08:08:12;;;;;;;24.67;10.67;;;7.20;91.00;;;;;;5085027;28;20585;-61
2023/03/05 08:10:40;;;;;;;22.30;12.20;;;7.20;90.90;;;;;;5060967;28;20762;-60
2023/03/05 08:13:06;;;;;;;32.47;16.30;;;7.20;90.70;;;;;;5065707;28;20491;-60
2023/03/05 08:15:33;;;;;;;31.43;13.23;;;7.30;90.80;;;;;;5068856;28;20554;-60
2023/03/05 08:18:00;;;;;;;42.67;18.10;;;7.30;90.80;;;;;;5059925;28;20474;-60
2023/03/05 08:20:28;;;;;;;33.20;14.77;;;7.30;90.60;;;;;;5077307;28;20487;-60
2023/03/05 08:22:55;;;;;;;36.40;16.53;;;7.30;90.60;;;;;;5052072;28;20487;-60
2023/03/05 08:25:22;;;;;;;35.40;16.00;;;7.20;90.40;;;;;;5066551;27;20944;-60
2023/03/05 08:27:48;;;;;;;27.63;14.03;;;7.30;90.60;;;;;;5092814;28;20566;-60
2023/03/05 08:30:17;;;;;;;22.20;11.03;;;7.30;90.70;;;;;;5054824;28;20546;-60
2023/03/05 08:32:44;;;;;;;23.43;12.03;;;7.30;90.50;;;;;;5078060;28;20535;-60
2023/03/05 08:35:11;;;;;;;24.33;12.27;;;7.30;90.10;;;;;;5077959;28;20531;-60
2023/03/05 08:37:39;;;;;;;39.17;13.50;;;7.40;90.40;;;;;;5068187;28;20535;-61
2023/03/05 08:40:07;;;;;;;27.87;12.90;;;7.50;90.50;;;;;;5071913;28;20503;-59
2023/03/05 08:42:33;;;;;;;24.97;13.50;;;7.50;90.30;;;;;;5075841;28;20530;-59
2023/03/05 08:45:00;;;;;;;33.17;16.77;;;7.60;90.60;;;;;;5092686;28;20740;-59
2023/03/05 08:47:27;;;;;;;26.50;13.40;;;7.60;90.30;;;;;;5089390;28;20862;-59
2023/03/05 08:49:56;;;;;;;31.37;15.73;;;7.70;90.20;;;;;;5076031;28;20569;-59
2023/03/05 08:52:22;;;;;;;37.33;12.77;;;7.60;89.30;;;;;;5075690;28;20469;-59
2023/03/05 08:54:51;;;;;;;32.77;12.40;;;7.60;89.90;;;;;;5064042;28;20727;-59
2023/03/05 08:57:17;;;;;;;19.87;10.37;;;7.60;89.80;;;;;;5072213;28;20483;-59
2023/03/05 08:59:44;;;;;;;23.97;10.03;;;7.60;89.50;;;;;;5080845;28;20531;-59
2023/03/05 09:02:12;;;;;;;23.80;9.63;;;7.60;90.10;;;;;;5070786;28;20479;-60
2023/03/05 09:04:39;;;;;;;21.10;10.63;;;7.70;90.20;;;;;;5082818;28;20555;-59
2023/03/05 09:07:06;;;;;;;19.40;10.00;;;7.80;90.00;;;;;;5084862;28;20900;-60
2023/03/05 09:09:33;;;;;;;20.60;10.13;;;7.90;89.10;;;;;;5084290;28;20478;-59
2023/03/05 09:12:05;;;;;;;41.97;16.33;;;7.90;89.20;;;;;;5076548;28;20792;-59
2023/03/05 09:14:32;;;;;;;19.80;10.43;;;7.90;87.80;;;;;;5074752;28;20482;-60
2023/03/05 09:16:58;;;;;;;23.40;12.63;;;8.00;88.00;;;;;;5065616;28;20481;-60
2023/03/05 09:19:26;;;;;;;17.57;10.00;;;8.00;87.60;;;;;;5076119;28;20563;-60
2023/03/05 09:21:52;;;;;;;18.67;8.17;;;7.90;87.00;;;;;;5065251;28;20474;-59
2023/03/05 09:24:19;;;;;;;18.43;10.30;;;7.90;87.80;;;;;;5094796;28;20542;-59
2023/03/05 09:26:46;;;;;;;19.30;10.83;;;7.90;87.10;;;;;;5097578;28;20542;-59
2023/03/05 09:29:14;;;;;;;26.00;9.57;;;8.00;86.70;;;;;;5097135;28;20518;-59
2023/03/05 09:31:42;;;;;;;21.13;10.33;;;8.00;86.20;;;;;;5083060;28;21040;-60
2023/03/05 09:34:08;;;;;;;16.10;9.77;;;8.00;85.60;;;;;;5055894;28;20482;-59
2023/03/05 09:36:35;;;;;;;19.93;9.20;;;8.00;85.90;;;;;;5085413;27;20521;-59
2023/03/05 09:39:05;;;;;;;54.67;22.90;;;8.00;86.50;;;;;;5073178;28;20899;-60
2023/03/05 09:41:44;;;;;;;16.43;8.90;;;8.00;86.50;;;;;;5065280;28;20726;-59
2023/03/05 09:44:27;;;;;;;16.80;8.73;;;8.00;87.10;;;;;;5056128;28;21137;-59
2023/03/05 09:46:56;;;;;;;31.57;16.00;;;8.00;86.80;;;;;;5069163;28;20487;-59
2023/03/05 09:49:33;;;;;;;19.40;10.40;;;8.10;86.90;;;;;;5063291;28;21022;-61
2023/03/05 09:52:06;;;;;;;23.73;13.13;;;8.10;86.60;;;;;;5073780;28;20478;-60
2023/03/05 09:54:38;;;;;;;12.87;8.57;;;8.20;86.20;;;;;;5071365;28;20483;-60
2023/03/05 09:57:12;;;;;;;19.20;11.53;;;8.20;85.60;;;;;;5069418;28;20856;-61
2023/03/05 09:59:48;;;;;;;23.03;8.53;;;8.10;85.20;;;;;;5072605;28;20577;-60
2023/03/05 10:02:19;;;;;;;16.13;9.10;;;8.20;85.80;;;;;;5073029;28;20474;-60
2023/03/05 10:04:52;;;;;;;19.93;9.97;;;8.20;86.70;;;;;;5070855;28;20748;-60
2023/03/05 10:07:24;;;;;;;19.20;10.03;;;8.30;86.20;;;;;;5073368;28;20473;-60
2023/03/05 10:09:55;;;;;;;15.83;9.43;;;;;;;;;;5058248;28;20466;-60
2023/03/05 10:12:27;;;;;;;22.23;9.43;;;8.30;85.50;;;;;;5060156;28;20466;-60
2023/03/05 10:14:56;;;;;;;34.67;14.43;;;8.30;85.10;;;;;;5045493;28;20576;-59
2023/03/05 10:17:54;;;;;;;32.07;10.37;;;8.20;84.20;;;;;;5068177;28;20714;-59
2023/03/05 10:20:49;;;;;;;21.93;9.30;;;8.10;83.90;;;;;;5063321;28;21037;-59
2023/03/05 10:23:28;;;;;;;17.63;9.10;;;8.10;84.80;;;;;;5069732;28;20564;-60
2023/03/05 10:26:06;;;;;;;29.27;11.20;;;8.10;85.10;;;;;;5067639;28;20486;-59
2023/03/05 10:28:45;;;;;;;19.17;9.30;;;8.20;85.50;;;;;;5059167;28;20673;-59
2023/03/05 10:31:28;;;;;;;22.93;8.20;;;8.30;84.10;;;;;;5045792;28;20486;-60
2023/03/05 10:34:22;;;;;;;29.37;15.17;;;8.30;83.30;;;;;;5071862;28;20474;-60
2023/03/05 10:37:04;;;;;;;18.37;9.87;;;8.30;85.00;;;;;;5077548;28;20542;-59
2023/03/05 10:39:43;;;;;;;14.13;7.83;;;8.20;84.50;;;;;;5068259;28;20486;-59
2023/03/05 10:42:20;;;;;;;13.07;8.43;;;8.30;84.30;;;;;;5065598;28;21025;-59
2023/03/05 10:44:49;;;;;;;26.50;10.53;;;8.30;84.10;;;;;;5071213;28;20485;-59
2023/03/05 10:47:26;;;;;;;18.47;9.90;;;8.30;84.50;;;;;;5062600;28;20470;-61
2023/03/05 10:49:55;;;;;;;25.90;12.47;;;8.40;85.10;;;;;;5066080;28;20507;-60
2023/03/05 10:52:29;;;;;;;18.43;10.50;;;8.50;85.50;;;;;;5076477;28;20644;-60
2023/03/05 10:54:55;;;;;;;24.53;11.93;;;8.60;85.70;;;;;;5069389;28;21360;-59
2023/03/05 10:57:23;;;;;;;29.47;11.00;;;8.70;85.00;;;;;;5069978;28;20473;-60
2023/03/05 10:59:52;;;;;;;18.10;9.70;;;8.60;83.00;;;;;;5059291;28;20494;-60
2023/03/05 11:02:22;;;;;;;17.13;8.43;;;8.70;84.70;;;;;;5052271;28;20463;-59
2023/03/05 11:04:50;;;;;;;19.97;9.17;;;8.50;81.90;;;;;;5068368;28;20482;-59
2023/03/05 11:07:33;;;;;;;20.10;10.70;;;8.30;82.80;;;;;;5059228;28;20545;-59
2023/03/05 11:10:15;;;;;;;24.03;11.30;;;8.20;83.40;;;;;;5052288;28;20891;-59
2023/03/05 11:12:42;;;;;;;17.13;9.40;;;8.20;84.10;;;;;;5075786;28;21025;-60
2023/03/05 11:15:27;;;;;;;14.93;7.87;;;8.30;84.00;;;;;;5073691;28;21047;-60
2023/03/05 11:18:17;;;;;;;29.47;14.27;;;8.30;84.20;;;;;;5070614;28;21298;-60
2023/03/05 11:20:44;;;;;;;19.47;10.43;;;8.30;84.10;;;;;;5058375;28;20724;-60
2023/03/05 11:23:14;;;;;;;11.43;6.70;;;8.40;84.00;;;;;;5081474;28;20835;-60
2023/03/05 11:25:59;;;;;;;23.93;7.80;;;8.50;83.20;;;;;;5086525;28;20465;-60
2023/03/05 11:28:29;;;;;;;14.20;9.23;;;8.50;83.40;;;;;;5080283;28;21062;-59
2023/03/05 11:30:59;;;;;;;23.40;11.90;;;8.50;83.10;;;;;;5060423;28;20530;-60
2023/03/05 11:33:28;;;;;;;15.33;9.30;;;8.50;83.30;;;;;;5080635;28;20485;-59
2023/03/05 11:36:13;;;;;;;28.37;14.57;;;8.50;82.90;;;;;;5086597;28;20477;-59
2023/03/05 11:38:51;;;;;;;20.33;10.90;;;8.30;83.50;;;;;;5055853;27;20527;-60
2023/03/05 11:41:20;;;;;;;14.57;8.43;;;8.20;84.20;;;;;;5071161;28;20562;-59
2023/03/05 11:43:50;;;;;;;26.30;12.07;;;8.20;83.80;;;;;;5081290;28;20482;-60
2023/03/05 11:46:17;;;;;;;14.10;8.30;;;8.30;83.90;;;;;;5091570;28;20481;-59
2023/03/05 11:48:46;;;;;;;25.77;10.40;;;8.30;84.10;;;;;;5085127;28;20489;-59
2023/03/05 11:51:20;;;;;;;17.53;9.80;;;8.30;83.70;;;;;;5069315;28;20535;-59
2023/03/05 11:53:50;;;;;;;22.47;11.27;;;8.30;83.10;;;;;;5077979;28;20486;-58
2023/03/05 11:56:21;;;;;;;19.87;8.27;;;8.30;82.60;;;;;;5066591;28;20792;-59
2023/03/05 11:58:52;;;;;;;18.93;9.73;;;8.30;83.30;;;;;;5049546;28;20488;-59
2023/03/05 12:01:21;;;;;;;15.47;9.40;;;8.10;83.00;;;;;;5075141;28;20960;-59
2023/03/05 12:03:51;;;;;;;53.97;26.20;;;8.10;83.20;;;;;;5075663;28;20474;-59
2023/03/05 12:06:24;;;;;;;12.13;6.93;;;8.10;83.40;;;;;;5084599;28;22743;-59
2023/03/05 12:08:54;;;;;;;28.57;12.57;;;8.00;83.20;;;;;;5067320;28;20575;-59
2023/03/05 12:11:26;;;;;;;16.30;9.33;;;8.00;83.50;;;;;;5082133;28;20530;-59
2023/03/05 12:13:56;;;;;;;28.87;12.63;;;8.00;83.30;;;;;;5070190;28;21387;-59
2023/03/05 12:16:28;;;;;;;14.43;8.50;;;8.10;83.00;;;;;;5074740;28;20531;-59
2023/03/05 12:19:34;;;;;;;32.20;14.90;;;8.20;81.80;;;;;;5068522;28;20475;-59
2023/03/05 12:22:02;;;;;;;25.87;13.20;;;8.20;82.20;;;;;;5011703;28;21182;-58
2023/03/05 12:24:39;;;;;;;32.73;12.47;;;8.30;81.50;;;;;;5011366;28;20473;-58
2023/03/05 12:27:08;;;;;;;27.13;10.90;;;8.30;81.90;;;;;;5040897;28;20494;-59
2023/03/05 12:29:40;;;;;;;16.10;9.70;;;8.30;80.50;;;;;;5069625;28;20516;-59
2023/03/05 12:33:01;;;;;;;19.03;9.47;;;8.40;81.60;;;;;;5066271;28;20624;-60
2023/03/05 12:35:46;;;;;;;14.30;7.77;;;8.30;80.70;;;;;;5072956;28;20485;-58
2023/03/05 12:38:29;;;;;;;17.17;7.33;;;8.30;81.10;;;;;;5088387;28;20478;-59
2023/03/05 12:41:41;;;;;;;26.70;13.07;;;8.20;81.50;;;;;;5070527;28;20625;-59
2023/03/05 12:44:18;;;;;;;15.57;7.90;;;8.10;80.60;;;;;;5039913;28;21021;-59
2023/03/05 12:46:47;;;;;;;16.53;9.13;;;8.10;82.20;;;;;;5091545;28;20518;-59
2023/03/05 12:49:35;;;;;;;12.93;7.10;;;8.10;81.00;;;;;;5056284;28;21139;-58